createdAt,value
2018-12-07T00:00:23.531Z,6.40
2018-12-07T00:01:23.522Z,6.70
2018-12-07T00:02:23.499Z,6.80
2018-12-07T00:03:23.533Z,6.70
2018-12-07T00:04:23.507Z,6.30
2018-12-07T00:05:23.469Z,6.50
2018-12-07T00:06:23.455Z,6.60
2018-12-07T00:07:23.470Z,6.70
2018-12-07T00:08:23.441Z,6.20
2018-12-07T00:09:23.433Z,6.30
2018-12-07T00:10:23.434Z,7.00
2018-12-07T00:11:23.407Z,6.60
2018-12-07T00:12:23.388Z,6.70
2018-12-07T00:13:23.379Z,6.50
2018-12-07T00:14:23.372Z,6.90
2018-12-07T00:15:23.405Z,6.60
2018-12-07T00:16:23.377Z,6.60
2018-12-07T00:17:23.338Z,6.80
2018-12-07T00:18:23.339Z,6.90
2018-12-07T00:19:23.320Z,6.30
2018-12-07T00:20:23.389Z,7.00
2018-12-07T00:21:23.296Z,6.60
2018-12-07T00:22:23.299Z,6.70
2018-12-07T00:23:23.303Z,6.90
2018-12-07T00:24:23.260Z,6.60
2018-12-07T00:25:23.279Z,6.70
2018-12-07T00:26:23.258Z,6.60
2018-12-07T00:27:23.227Z,6.70
2018-12-07T00:28:23.234Z,6.40
2018-12-07T00:29:23.207Z,6.70
2018-12-07T00:30:23.196Z,6.90
2018-12-07T00:31:23.199Z,7.00
2018-12-07T00:32:23.178Z,6.60
2018-12-07T00:33:23.160Z,7.10
2018-12-07T00:34:23.175Z,6.90
2018-12-07T00:35:23.139Z,6.90
2018-12-07T00:36:23.152Z,6.60
2018-12-07T00:37:23.130Z,6.90
2018-12-07T00:38:23.137Z,6.80
2018-12-07T00:39:23.112Z,6.90
2018-12-07T00:40:23.097Z,6.60
2018-12-07T00:41:23.110Z,6.30
2018-12-07T00:42:23.062Z,6.80
2018-12-07T00:43:23.066Z,6.80
2018-12-07T00:44:23.039Z,6.40
2018-12-07T00:45:23.029Z,6.70
2018-12-07T00:46:23.024Z,6.60
2018-12-07T00:47:23.039Z,6.60
2018-12-07T00:48:23.017Z,6.60
2018-12-07T00:49:22.988Z,6.50
2018-12-07T00:50:22.980Z,6.50
2018-12-07T00:51:22.971Z,6.40
2018-12-07T00:52:22.979Z,6.30
2018-12-07T00:53:22.947Z,6.40
2018-12-07T00:54:22.937Z,6.70
2018-12-07T00:55:22.920Z,6.50
2018-12-07T00:56:22.911Z,6.40
2018-12-07T00:57:22.991Z,6.20
2018-12-07T00:58:22.898Z,6.40
2018-12-07T00:59:22.969Z,6.10
2018-12-07T01:00:22.877Z,6.30
2018-12-07T01:01:22.863Z,6.40
2018-12-07T01:02:22.896Z,6.30
2018-12-07T01:03:22.861Z,6.30
2018-12-07T01:04:22.824Z,6.50
2018-12-07T01:05:22.818Z,6.10
2018-12-07T01:06:22.817Z,6.10
2018-12-07T01:07:22.786Z,6.00
2018-12-07T01:08:22.800Z,6.10
2018-12-07T01:09:22.791Z,6.70
2018-12-07T01:10:22.756Z,6.60
2018-12-07T01:11:22.745Z,6.60
2018-12-07T01:12:22.755Z,6.50
2018-12-07T01:13:22.756Z,6.70
2018-12-07T01:14:22.712Z,6.70
2018-12-07T01:15:22.715Z,6.60
2018-12-07T01:16:22.701Z,6.60
2018-12-07T01:17:22.678Z,6.90
2018-12-07T01:18:22.695Z,6.60
2018-12-07T01:19:22.688Z,6.40
2018-12-07T01:20:22.656Z,6.20
2018-12-07T01:21:22.643Z,6.30
2018-12-07T01:22:22.627Z,6.40
2018-12-07T01:23:22.647Z,6.50
2018-12-07T01:24:22.599Z,7.10
2018-12-07T01:25:22.592Z,6.60
2018-12-07T01:26:22.616Z,6.50
2018-12-07T01:27:22.568Z,6.70
2018-12-07T01:28:22.560Z,6.80
2018-12-07T01:29:22.564Z,6.70
2018-12-07T01:30:22.543Z,6.40
2018-12-07T01:31:22.524Z,6.60
2018-12-07T01:32:22.523Z,6.60
2018-12-07T01:33:22.509Z,6.50
2018-12-07T01:34:22.508Z,6.60
2018-12-07T01:35:22.479Z,6.80
2018-12-07T01:36:22.470Z,6.80
2018-12-07T01:37:22.467Z,6.90
2018-12-07T01:38:22.466Z,6.90
2018-12-07T01:39:22.479Z,6.70
2018-12-07T01:40:22.423Z,6.70
2018-12-07T01:41:22.433Z,7.00
2018-12-07T01:42:22.400Z,6.90
2018-12-07T01:43:22.398Z,6.70
2018-12-07T01:44:22.424Z,6.70
2018-12-07T01:45:22.400Z,6.80
2018-12-07T01:46:22.380Z,6.30
2018-12-07T01:47:22.376Z,6.80
2018-12-07T01:48:22.340Z,6.90
2018-12-07T01:49:22.367Z,6.50
2018-12-07T01:50:22.328Z,6.80
2018-12-07T01:51:22.308Z,6.90
2018-12-07T01:52:22.300Z,6.50
2018-12-07T01:53:22.290Z,6.50
2018-12-07T01:54:22.273Z,6.40
2018-12-07T01:55:22.330Z,6.60
2018-12-07T01:56:22.259Z,6.30
2018-12-07T01:57:22.242Z,6.30
2018-12-07T01:58:22.224Z,6.70
2018-12-07T01:59:22.216Z,6.40
2018-12-07T02:00:22.247Z,6.60
2018-12-07T02:01:22.202Z,6.60
2018-12-07T02:02:22.208Z,6.40
2018-12-07T02:03:22.173Z,6.60
2018-12-07T02:04:22.164Z,6.30
2018-12-07T02:05:22.177Z,6.40
2018-12-07T02:06:22.142Z,6.40
2018-12-07T02:07:22.132Z,6.50
2018-12-07T02:08:22.129Z,7.10
2018-12-07T02:09:22.105Z,6.90
2018-12-07T02:10:22.128Z,6.40
2018-12-07T02:11:22.107Z,6.50
2018-12-07T02:12:22.076Z,6.50
2018-12-07T02:13:22.069Z,6.50
2018-12-07T02:14:22.051Z,6.80
2018-12-07T02:15:22.086Z,6.60
2018-12-07T02:16:22.054Z,6.30
2018-12-07T02:17:22.023Z,6.30
2018-12-07T02:18:22.008Z,6.60
2018-12-07T02:19:21.999Z,6.30
2018-12-07T02:20:21.988Z,5.80
2018-12-07T02:21:21.997Z,6.60
2018-12-07T02:22:21.967Z,6.30
2018-12-07T02:23:21.955Z,6.10
2018-12-07T02:24:21.957Z,6.10
2018-12-07T02:25:21.931Z,6.00
2018-12-07T02:26:21.950Z,6.10
2018-12-07T02:27:21.924Z,5.80
2018-12-07T02:28:21.899Z,5.80
2018-12-07T02:29:21.930Z,5.50
2018-12-07T02:30:21.901Z,5.70
2018-12-07T02:31:21.865Z,5.30
2018-12-07T02:32:21.904Z,5.10
2018-12-07T02:33:21.859Z,4.80
2018-12-07T02:34:21.829Z,5.00
2018-12-07T02:35:21.881Z,5.00
2018-12-07T02:36:21.818Z,4.50
2018-12-07T02:37:21.844Z,4.60
2018-12-07T02:38:21.805Z,4.80
2018-12-07T02:39:21.783Z,4.20
2018-12-07T02:40:21.770Z,4.30
2018-12-07T02:41:21.754Z,4.30
2018-12-07T02:42:21.818Z,4.20
2018-12-07T02:43:21.738Z,3.70
2018-12-07T02:44:21.726Z,4.00
2018-12-07T02:45:21.727Z,4.30
2018-12-07T02:46:21.718Z,3.80
2018-12-07T02:47:21.698Z,4.10
2018-12-07T02:48:21.710Z,3.70
2018-12-07T02:49:21.679Z,3.80
2018-12-07T02:50:21.656Z,4.00
2018-12-07T02:51:21.665Z,4.00
2018-12-07T02:52:21.692Z,3.90
2018-12-07T02:53:21.662Z,3.80
2018-12-07T02:54:21.658Z,4.00
2018-12-07T02:55:21.618Z,3.80
2018-12-07T02:56:21.627Z,3.80
2018-12-07T02:57:21.606Z,3.90
2018-12-07T02:58:21.608Z,3.60
2018-12-07T02:59:21.561Z,4.00
2018-12-07T03:00:21.553Z,3.90
2018-12-07T03:01:21.563Z,3.90
2018-12-07T03:02:21.530Z,4.00
2018-12-07T03:03:21.529Z,3.90
2018-12-07T03:04:21.530Z,3.90
2018-12-07T03:05:21.523Z,4.00
2018-12-07T03:06:21.488Z,4.10
2018-12-07T03:07:21.496Z,3.90
2018-12-07T03:08:21.473Z,4.00
2018-12-07T03:09:21.469Z,3.60
2018-12-07T03:10:21.437Z,3.90
2018-12-07T03:11:21.442Z,3.60
2018-12-07T03:12:21.436Z,4.00
2018-12-07T03:13:21.414Z,4.10
2018-12-07T03:14:21.422Z,3.60
2018-12-07T03:15:21.394Z,3.70
2018-12-07T03:16:21.384Z,3.80
2018-12-07T03:17:21.384Z,3.80
2018-12-07T03:18:21.405Z,3.80
2018-12-07T03:19:21.351Z,3.50
2018-12-07T03:20:21.355Z,3.60
2018-12-07T03:21:21.342Z,3.60
2018-12-07T03:22:21.307Z,3.80
2018-12-07T03:23:21.320Z,3.70
2018-12-07T03:24:21.284Z,3.50
2018-12-07T03:25:21.285Z,3.70
2018-12-07T03:26:21.271Z,3.50
2018-12-07T03:27:21.249Z,3.50
2018-12-07T03:28:21.239Z,3.40
2018-12-07T03:29:21.269Z,3.60
2018-12-07T03:30:21.265Z,3.70
2018-12-07T03:31:21.205Z,3.30
2018-12-07T03:32:21.223Z,3.70
2018-12-07T03:33:21.189Z,3.50
2018-12-07T03:34:21.175Z,3.50
2018-12-07T03:35:21.175Z,3.50
2018-12-07T03:36:21.180Z,3.60
2018-12-07T03:37:21.143Z,3.50
2018-12-07T03:38:21.141Z,3.60
2018-12-07T03:39:21.123Z,3.70
2018-12-07T03:40:21.114Z,3.70
2018-12-07T03:41:21.143Z,3.50
2018-12-07T03:42:21.091Z,3.80
2018-12-07T03:43:21.088Z,3.70
2018-12-07T03:44:21.070Z,3.90
2018-12-07T03:45:21.069Z,4.20
2018-12-07T03:46:21.085Z,4.00
2018-12-07T03:47:21.040Z,4.00
2018-12-07T03:48:21.027Z,4.20
2018-12-07T03:49:21.014Z,4.10
2018-12-07T03:50:21.080Z,4.10
2018-12-07T03:51:21.034Z,4.00
2018-12-07T03:52:20.984Z,4.20
2018-12-07T03:53:21.004Z,4.00
2018-12-07T03:54:20.962Z,4.30
2018-12-07T03:55:20.969Z,3.90
2018-12-07T03:56:20.934Z,4.00
2018-12-07T03:57:20.943Z,3.80
2018-12-07T03:58:20.916Z,3.80
2018-12-07T03:59:20.906Z,3.80
2018-12-07T04:00:20.904Z,3.70
2018-12-07T04:01:20.945Z,3.80
2018-12-07T04:02:20.890Z,3.70
2018-12-07T04:03:20.857Z,4.00
2018-12-07T04:04:20.858Z,3.50
2018-12-07T04:05:20.837Z,3.50
2018-12-07T04:06:20.832Z,3.50
2018-12-07T04:07:20.849Z,3.30
2018-12-07T04:08:20.841Z,3.40
2018-12-07T04:09:20.785Z,3.20
2018-12-07T04:10:20.803Z,3.10
2018-12-07T04:11:20.775Z,3.40
2018-12-07T04:12:20.770Z,3.20
2018-12-07T04:13:20.807Z,3.00
2018-12-07T04:14:20.734Z,3.30
2018-12-07T04:15:20.729Z,3.50
2018-12-07T04:16:20.743Z,2.90
2018-12-07T04:17:20.702Z,3.10
2018-12-07T04:18:20.717Z,3.10
2018-12-07T04:19:20.767Z,2.90
2018-12-07T04:20:20.673Z,3.00
2018-12-07T04:21:20.664Z,3.00
2018-12-07T04:22:20.680Z,3.00
2018-12-07T04:23:20.686Z,2.90
2018-12-07T04:24:20.624Z,2.70
2018-12-07T04:25:20.630Z,2.70
2018-12-07T04:26:20.598Z,2.80
2018-12-07T04:27:20.588Z,2.90
2018-12-07T04:28:20.599Z,2.60
2018-12-07T04:29:20.601Z,2.70
2018-12-07T04:30:20.579Z,2.70
2018-12-07T04:31:20.604Z,2.60
2018-12-07T04:32:20.553Z,2.70
2018-12-07T04:33:20.546Z,2.60
2018-12-07T04:34:20.547Z,2.60
2018-12-07T04:35:20.507Z,2.60
2018-12-07T04:36:20.494Z,2.60
2018-12-07T04:37:20.478Z,2.60
2018-12-07T04:38:20.469Z,2.30
2018-12-07T04:39:20.480Z,2.50
2018-12-07T04:40:20.454Z,2.40
2018-12-07T04:41:20.460Z,2.40
2018-12-07T04:42:20.430Z,2.30
2018-12-07T04:43:20.411Z,2.40
2018-12-07T04:44:20.437Z,2.40
2018-12-07T04:45:20.401Z,2.20
2018-12-07T04:46:20.393Z,2.40
2018-12-07T04:47:20.380Z,2.40
2018-12-07T04:48:20.357Z,2.30
2018-12-07T04:49:20.351Z,2.10
2018-12-07T04:50:20.372Z,2.60
2018-12-07T04:51:20.352Z,2.20
2018-12-07T04:52:20.340Z,2.10
2018-12-07T04:53:20.327Z,2.20
2018-12-07T04:54:20.339Z,2.20
2018-12-07T04:55:20.322Z,2.20
2018-12-07T04:56:20.288Z,2.20
2018-12-07T04:57:20.259Z,2.10
2018-12-07T04:58:20.252Z,2.00
2018-12-07T04:59:20.257Z,2.20
2018-12-07T05:00:20.380Z,2.00
2018-12-07T05:01:20.225Z,2.20
2018-12-07T05:02:20.224Z,2.00
2018-12-07T05:03:20.201Z,1.90
2018-12-07T05:04:20.186Z,2.00
2018-12-07T05:05:20.185Z,2.00
2018-12-07T05:06:20.240Z,1.90
2018-12-07T05:07:20.159Z,2.00
2018-12-07T05:08:20.159Z,1.90
2018-12-07T05:09:20.225Z,1.80
2018-12-07T05:10:20.119Z,2.10
2018-12-07T05:11:20.125Z,1.80
2018-12-07T05:12:20.107Z,1.80
2018-12-07T05:13:20.084Z,1.80
2018-12-07T05:14:20.077Z,1.80
2018-12-07T05:15:20.086Z,1.90
2018-12-07T05:16:20.093Z,1.90
2018-12-07T05:17:20.050Z,1.80
2018-12-07T05:18:20.040Z,1.70
2018-12-07T05:19:20.017Z,1.70
2018-12-07T05:20:20.003Z,1.70
2018-12-07T05:21:20.016Z,1.70
2018-12-07T05:22:20.016Z,1.80
2018-12-07T05:23:19.994Z,1.60
2018-12-07T05:24:19.966Z,1.60
2018-12-07T05:25:19.948Z,1.80
2018-12-07T05:26:19.953Z,1.50
2018-12-07T05:27:19.949Z,1.80
2018-12-07T05:28:19.936Z,1.70
2018-12-07T05:29:19.907Z,1.70
2018-12-07T05:30:19.901Z,1.80
2018-12-07T05:31:19.929Z,1.70
2018-12-07T05:32:19.944Z,1.70
2018-12-07T05:33:19.917Z,1.60
2018-12-07T05:34:19.868Z,1.50
2018-12-07T05:35:19.840Z,1.70
2018-12-07T05:36:19.842Z,1.60
2018-12-07T05:37:19.857Z,1.70
2018-12-07T05:38:19.831Z,1.60
2018-12-07T05:39:19.828Z,1.60
2018-12-07T05:40:19.815Z,1.50
2018-12-07T05:41:19.773Z,1.60
2018-12-07T05:42:19.775Z,1.60
2018-12-07T05:43:19.778Z,1.50
2018-12-07T05:44:19.758Z,1.70
2018-12-07T05:45:19.740Z,1.60
2018-12-07T05:46:19.747Z,1.70
2018-12-07T05:47:19.709Z,1.50
2018-12-07T05:48:23.593Z,1.60
2018-12-07T05:49:19.712Z,1.70
2018-12-07T05:50:19.676Z,1.80
2018-12-07T05:51:19.667Z,2.00
2018-12-07T05:52:19.659Z,2.10
2018-12-07T05:53:19.645Z,1.90
2018-12-07T05:54:19.649Z,2.20
2018-12-07T05:55:19.637Z,2.30
2018-12-07T05:56:19.628Z,2.20
2018-12-07T05:57:19.610Z,2.40
2018-12-07T05:58:19.604Z,2.30
2018-12-07T05:59:19.595Z,2.20
2018-12-07T06:00:19.566Z,2.40
2018-12-07T06:01:19.581Z,2.40
2018-12-07T06:02:19.547Z,2.50
2018-12-07T06:03:19.529Z,2.30
2018-12-07T06:04:19.558Z,2.50
2018-12-07T06:05:19.516Z,2.40
2018-12-07T06:06:19.522Z,2.60
2018-12-07T06:07:19.510Z,2.50
2018-12-07T06:08:19.504Z,2.30
2018-12-07T06:09:19.489Z,2.50
2018-12-07T06:10:19.721Z,2.50
2018-12-07T06:11:19.502Z,2.30
2018-12-07T06:12:19.443Z,2.40
2018-12-07T06:13:19.442Z,2.30
2018-12-07T06:14:19.411Z,2.30
2018-12-07T06:15:19.423Z,2.20
2018-12-07T06:16:19.393Z,2.00
2018-12-07T06:17:19.384Z,2.10
2018-12-07T06:18:19.436Z,2.00
2018-12-07T06:19:19.375Z,2.30
2018-12-07T06:20:19.402Z,2.20
2018-12-07T06:21:19.332Z,2.20
2018-12-07T06:22:19.330Z,2.20
2018-12-07T06:23:19.332Z,2.40
2018-12-07T06:24:19.325Z,2.20
2018-12-07T06:25:19.294Z,2.10
2018-12-07T06:26:19.305Z,2.40
2018-12-07T06:27:19.273Z,2.20
2018-12-07T06:28:19.258Z,2.30
2018-12-07T06:29:19.260Z,2.30
2018-12-07T06:30:19.258Z,2.30
2018-12-07T06:31:19.255Z,2.30
2018-12-07T06:32:19.238Z,2.30
2018-12-07T06:33:19.224Z,2.10
2018-12-07T06:34:19.196Z,2.20
2018-12-07T06:35:19.177Z,2.20
2018-12-07T06:36:19.202Z,2.30
2018-12-07T06:37:19.163Z,2.30
2018-12-07T06:39:17.831Z,2.00
2018-12-07T06:40:17.785Z,2.30
2018-12-07T06:41:17.794Z,2.40
2018-12-07T06:42:17.805Z,2.40
2018-12-07T06:43:17.751Z,2.30
2018-12-07T06:44:17.747Z,2.60
2018-12-07T06:45:17.728Z,2.60
2018-12-07T06:46:17.738Z,2.50
2018-12-07T06:47:17.753Z,2.10
2018-12-07T06:48:17.701Z,2.30
2018-12-07T06:50:33.950Z,2.10
2018-12-07T06:51:33.946Z,2.40
2018-12-07T06:52:33.941Z,2.30
2018-12-07T06:53:33.897Z,2.30
2018-12-07T06:54:33.881Z,2.50
2018-12-07T06:55:33.924Z,2.30
2018-12-07T06:56:41.457Z,2.30
2018-12-07T06:57:33.893Z,2.30
2018-12-07T06:58:33.850Z,2.10
2018-12-07T06:59:33.851Z,2.50
2018-12-07T07:00:33.815Z,2.50
2018-12-07T07:01:33.810Z,2.50
2018-12-07T07:02:33.830Z,2.70
2018-12-07T07:03:33.781Z,2.90
2018-12-07T07:04:33.779Z,2.70
2018-12-07T07:05:33.790Z,2.60
2018-12-07T07:06:33.766Z,2.70
2018-12-07T07:07:33.739Z,2.60
2018-12-07T07:08:33.783Z,2.60
2018-12-07T07:09:33.823Z,2.50
2018-12-07T07:10:33.715Z,2.80
2018-12-07T07:11:33.707Z,3.00
2018-12-07T07:12:33.709Z,2.90
2018-12-07T07:13:33.704Z,2.80
2018-12-07T07:14:33.662Z,2.90
2018-12-07T07:15:33.658Z,2.90
2018-12-07T07:16:33.640Z,3.00
2018-12-07T07:17:33.649Z,2.80
2018-12-07T07:18:33.660Z,3.10
2018-12-07T07:19:33.612Z,3.30
2018-12-07T07:20:33.620Z,3.00
2018-12-07T07:21:33.626Z,3.40
2018-12-07T07:22:33.602Z,3.20
2018-12-07T07:23:33.577Z,3.30
2018-12-07T07:24:33.583Z,3.60
2018-12-07T07:25:33.558Z,3.60
2018-12-07T07:26:33.549Z,3.60
2018-12-07T07:27:33.596Z,3.40
2018-12-07T07:28:33.517Z,3.40
2018-12-07T07:29:33.518Z,3.50
2018-12-07T07:30:33.499Z,3.50
2018-12-07T07:31:33.500Z,3.70
2018-12-07T07:32:33.475Z,3.40
2018-12-07T07:33:33.453Z,3.90
2018-12-07T07:34:33.488Z,3.50
2018-12-07T07:35:33.442Z,3.60
2018-12-07T07:36:33.452Z,3.80
2018-12-07T07:37:33.440Z,3.80
2018-12-07T07:38:33.401Z,3.60
2018-12-07T07:39:33.397Z,3.80
2018-12-07T07:40:33.404Z,3.70
2018-12-07T07:41:33.380Z,3.70
2018-12-07T07:42:33.361Z,4.10
2018-12-07T07:43:33.368Z,3.80
2018-12-07T07:44:33.347Z,3.90
2018-12-07T07:45:33.364Z,3.80
2018-12-07T07:46:33.308Z,3.80
2018-12-07T07:47:33.299Z,3.90
2018-12-07T07:48:33.297Z,4.10
2018-12-07T07:49:33.276Z,4.00
2018-12-07T07:50:33.314Z,4.20
2018-12-07T07:51:33.264Z,4.30
2018-12-07T07:52:33.281Z,4.30
2018-12-07T07:53:33.239Z,4.30
2018-12-07T07:54:33.241Z,4.20
2018-12-07T07:55:33.211Z,4.30
2018-12-07T07:56:33.229Z,4.10
2018-12-07T07:57:33.188Z,4.30
2018-12-07T07:58:33.185Z,4.00
2018-12-07T07:59:33.164Z,4.10
2018-12-07T08:00:33.164Z,4.20
2018-12-07T08:01:33.180Z,4.20
2018-12-07T08:02:33.131Z,4.30
2018-12-07T08:03:33.124Z,4.10
2018-12-07T08:04:33.161Z,4.10
2018-12-07T08:05:33.099Z,4.30
2018-12-07T08:06:33.084Z,4.10
2018-12-07T08:07:33.117Z,3.80
2018-12-07T08:08:33.083Z,4.40
2018-12-07T08:09:33.069Z,4.00
2018-12-07T08:10:33.071Z,4.30
2018-12-07T08:11:33.035Z,4.00
2018-12-07T08:12:33.078Z,3.90
2018-12-07T08:13:33.033Z,4.00
2018-12-07T08:14:33.000Z,4.10
2018-12-07T08:15:32.991Z,4.20
2018-12-07T08:16:32.997Z,4.10
2018-12-07T08:17:33.001Z,4.30
2018-12-07T08:18:32.975Z,4.30
2018-12-07T08:19:32.952Z,4.70
2018-12-07T08:20:32.934Z,4.90
2018-12-07T08:21:32.922Z,4.80
2018-12-07T08:22:32.976Z,4.90
2018-12-07T08:23:32.962Z,5.00
2018-12-07T08:24:32.913Z,5.00
2018-12-07T08:25:32.909Z,5.00
2018-12-07T08:26:32.874Z,4.50
2018-12-07T08:27:32.856Z,5.10
2018-12-07T08:28:32.880Z,4.60
2018-12-07T08:29:32.837Z,4.90
2018-12-07T08:30:32.871Z,5.00
2018-12-07T08:31:32.839Z,5.10
2018-12-07T08:32:32.801Z,5.40
2018-12-07T08:33:32.794Z,5.30
2018-12-07T08:34:32.869Z,5.60
2018-12-07T08:35:32.770Z,5.70
2018-12-07T08:36:32.838Z,5.80
2018-12-07T08:37:32.790Z,5.40
2018-12-07T08:38:32.747Z,5.50
2018-12-07T08:39:32.752Z,5.80
2018-12-07T08:40:32.726Z,5.50
2018-12-07T08:41:32.762Z,5.40
2018-12-07T08:42:32.745Z,6.50
2018-12-07T08:43:32.682Z,8.20
2018-12-07T08:44:32.702Z,5.80
2018-12-07T08:45:32.706Z,6.20
2018-12-07T08:46:32.664Z,6.00
2018-12-07T08:47:32.634Z,5.60
2018-12-07T08:48:32.645Z,4.80
2018-12-07T08:49:32.627Z,4.80
2018-12-07T08:50:32.673Z,4.90
2018-12-07T08:51:32.596Z,6.30
2018-12-07T08:52:32.590Z,6.70
2018-12-07T08:53:32.569Z,7.80
2018-12-07T08:54:32.552Z,5.00
2018-12-07T08:55:32.624Z,4.40
2018-12-07T08:56:32.581Z,4.10
2018-12-07T08:57:32.522Z,4.20
2018-12-07T08:58:32.523Z,4.20
2018-12-07T08:59:32.501Z,3.90
2018-12-07T09:00:32.526Z,4.10
2018-12-07T09:01:32.502Z,3.50
2018-12-07T09:02:32.468Z,3.90
2018-12-07T09:03:32.525Z,3.60
2018-12-07T09:04:32.451Z,3.60
2018-12-07T09:05:32.456Z,3.30
2018-12-07T09:06:32.467Z,3.60
2018-12-07T09:07:32.422Z,3.20
2018-12-07T09:08:32.398Z,3.40
2018-12-07T09:09:32.408Z,3.80
2018-12-07T09:10:32.409Z,3.60
2018-12-07T09:11:32.407Z,3.70
2018-12-07T09:12:32.355Z,3.60
2018-12-07T09:13:32.349Z,3.70
2018-12-07T09:14:32.368Z,3.90
2018-12-07T09:15:32.334Z,4.00
2018-12-07T09:16:32.332Z,4.00
2018-12-07T09:17:32.306Z,4.20
2018-12-07T09:18:32.342Z,4.00
2018-12-07T09:19:32.278Z,4.10
2018-12-07T09:20:32.300Z,4.50
2018-12-07T09:21:32.253Z,4.00
2018-12-07T09:22:32.247Z,4.00
2018-12-07T09:23:32.236Z,3.80
2018-12-07T09:24:32.292Z,3.60
2018-12-07T09:25:32.209Z,3.60
2018-12-07T09:26:32.257Z,3.70
2018-12-07T09:27:32.195Z,3.50
2018-12-07T09:28:32.214Z,4.10
2018-12-07T09:29:32.206Z,3.50
2018-12-07T09:30:32.161Z,3.70
2018-12-07T09:31:32.152Z,3.50
2018-12-07T09:32:32.134Z,3.40
2018-12-07T09:33:32.140Z,3.20
2018-12-07T09:34:32.153Z,3.10
2018-12-07T09:35:32.189Z,3.20
2018-12-07T09:36:32.115Z,3.30
2018-12-07T09:37:32.098Z,3.50
2018-12-07T09:38:32.066Z,3.50
2018-12-07T09:39:32.082Z,3.60
2018-12-07T09:40:32.075Z,3.40
2018-12-07T09:41:32.084Z,3.40
2018-12-07T09:42:32.092Z,3.20
2018-12-07T09:43:32.015Z,3.20
2018-12-07T09:44:32.024Z,3.30
2018-12-07T09:45:32.031Z,3.40
2018-12-07T09:46:31.983Z,3.10
2018-12-07T09:47:31.986Z,3.10
2018-12-07T09:48:32.005Z,3.00
2018-12-07T09:49:31.960Z,3.00
2018-12-07T09:50:31.935Z,2.80
2018-12-07T09:51:31.961Z,2.70
2018-12-07T09:52:31.927Z,2.50
2018-12-07T09:53:31.904Z,2.40
2018-12-07T09:54:31.903Z,2.30
2018-12-07T09:55:31.904Z,2.50
2018-12-07T09:56:31.905Z,2.70
2018-12-07T09:57:31.866Z,2.30
2018-12-07T09:58:31.850Z,2.40
2018-12-07T09:59:31.836Z,2.10
2018-12-07T10:00:31.827Z,2.40
2018-12-07T10:01:31.827Z,2.30
2018-12-07T10:02:31.847Z,2.30
2018-12-07T10:03:31.794Z,2.40
2018-12-07T10:04:31.797Z,2.20
2018-12-07T10:05:31.804Z,2.20
2018-12-07T10:06:31.758Z,1.90
2018-12-07T10:07:31.764Z,2.20
2018-12-07T10:08:31.755Z,2.10
2018-12-07T10:09:31.722Z,2.10
2018-12-07T10:10:32.084Z,2.00
2018-12-07T10:11:31.711Z,2.10
2018-12-07T10:12:31.694Z,2.50
2018-12-07T10:13:31.697Z,2.30
2018-12-07T10:14:31.715Z,2.30
2018-12-07T10:15:31.697Z,2.20
2018-12-07T10:16:31.662Z,2.20
2018-12-07T10:17:31.659Z,2.20
2018-12-07T10:18:31.637Z,2.30
2018-12-07T10:19:31.639Z,2.40
2018-12-07T10:20:31.613Z,2.30
2018-12-07T10:21:31.627Z,2.50
2018-12-07T10:22:31.586Z,2.70
2018-12-07T10:23:31.581Z,2.70
2018-12-07T10:24:31.637Z,2.40
2018-12-07T10:25:31.571Z,2.50
2018-12-07T10:26:31.562Z,2.50
2018-12-07T10:27:31.539Z,2.50
2018-12-07T10:28:31.522Z,2.80
2018-12-07T10:29:31.515Z,2.50
2018-12-07T10:30:31.505Z,2.50
2018-12-07T10:31:31.536Z,2.40
2018-12-07T10:32:31.487Z,2.30
2018-12-07T10:33:31.456Z,2.40
2018-12-07T10:34:31.448Z,2.30
2018-12-07T10:35:31.439Z,2.30
2018-12-07T10:36:31.477Z,2.40
2018-12-07T10:37:31.419Z,2.20
2018-12-07T10:38:31.462Z,2.30
2018-12-07T10:39:31.428Z,2.20
2018-12-07T10:40:31.380Z,2.00
2018-12-07T10:41:31.374Z,2.40
2018-12-07T10:42:31.380Z,2.30
2018-12-07T10:43:31.350Z,2.20
2018-12-07T10:44:31.369Z,2.40
2018-12-07T10:45:31.348Z,2.20
2018-12-07T10:46:31.325Z,2.10
2018-12-07T10:47:33.007Z,2.00
2018-12-07T10:48:31.317Z,2.00
2018-12-07T10:49:31.280Z,2.20
2018-12-07T10:50:31.325Z,2.10
2018-12-07T10:51:31.277Z,1.90
2018-12-07T10:52:31.263Z,2.00
2018-12-07T10:53:31.243Z,2.10
2018-12-07T10:54:31.259Z,1.80
2018-12-07T10:55:31.337Z,2.20
2018-12-07T10:56:31.257Z,2.20
2018-12-07T10:57:31.209Z,2.10
2018-12-07T10:58:31.188Z,2.00
2018-12-07T10:59:31.177Z,2.10
2018-12-07T11:00:31.177Z,2.00
2018-12-07T11:01:31.200Z,2.20
2018-12-07T11:02:31.140Z,2.20
2018-12-07T11:03:31.175Z,2.00
2018-12-07T11:04:31.129Z,2.00
2018-12-07T11:05:31.107Z,1.90
2018-12-07T11:06:31.205Z,2.10
2018-12-07T11:07:31.104Z,2.00
2018-12-07T11:08:31.185Z,2.10
2018-12-07T11:09:31.065Z,2.10
2018-12-07T11:10:31.061Z,2.00
2018-12-07T11:11:31.050Z,2.10
2018-12-07T11:12:31.059Z,1.90
2018-12-07T11:13:31.026Z,2.00
2018-12-07T11:14:31.004Z,1.90
2018-12-07T11:15:31.000Z,2.10
2018-12-07T11:16:30.989Z,2.10
2018-12-07T11:17:31.009Z,2.00
2018-12-07T11:18:30.969Z,2.00
2018-12-07T11:19:30.956Z,2.20
2018-12-07T11:20:30.945Z,2.30
2018-12-07T11:21:30.939Z,2.20
2018-12-07T11:22:30.936Z,2.50
2018-12-07T11:23:30.933Z,4.10
2018-12-07T11:24:30.919Z,3.10
2018-12-07T11:25:30.929Z,2.20
2018-12-07T11:26:30.896Z,4.40
2018-12-07T11:27:30.866Z,3.10
2018-12-07T11:28:30.909Z,4.40
2018-12-07T11:29:30.873Z,3.40
2018-12-07T11:30:30.876Z,3.90
2018-12-07T11:31:30.876Z,2.70
2018-12-07T11:32:30.812Z,3.40
2018-12-07T11:33:30.795Z,2.00
2018-12-07T11:34:30.791Z,1.80
2018-12-07T11:35:30.772Z,1.50
2018-12-07T11:36:30.807Z,1.60
2018-12-07T11:37:30.757Z,1.60
2018-12-07T11:38:30.738Z,1.80
2018-12-07T11:39:30.734Z,1.70
2018-12-07T11:40:30.723Z,1.90
2018-12-07T11:41:30.788Z,1.50
2018-12-07T11:42:30.696Z,1.70
2018-12-07T11:43:30.690Z,1.60
2018-12-07T11:44:30.677Z,1.70
2018-12-07T11:45:30.674Z,1.60
2018-12-07T11:46:30.651Z,1.60
2018-12-07T11:47:30.712Z,1.60
2018-12-07T11:48:30.634Z,1.70
2018-12-07T11:49:30.628Z,1.60
2018-12-07T11:50:30.604Z,1.60
2018-12-07T11:51:30.595Z,1.60
2018-12-07T11:52:30.628Z,1.60
2018-12-07T11:53:30.592Z,1.80
2018-12-07T11:54:30.560Z,1.60
2018-12-07T11:55:30.561Z,1.60
2018-12-07T11:56:30.609Z,1.80
2018-12-07T11:57:30.594Z,1.70
2018-12-07T11:58:30.520Z,1.80
2018-12-07T11:59:30.513Z,1.70
2018-12-07T12:00:30.501Z,1.60
2018-12-07T12:01:30.486Z,1.70
2018-12-07T12:02:30.502Z,1.60
2018-12-07T12:03:30.467Z,1.60
2018-12-07T12:04:30.464Z,1.70
2018-12-07T12:05:30.446Z,1.90
2018-12-07T12:06:30.433Z,1.70
2018-12-07T12:07:30.460Z,1.80
2018-12-07T12:08:30.421Z,1.70
2018-12-07T12:09:37.537Z,1.80
2018-12-07T12:10:30.397Z,1.70
2018-12-07T12:11:30.379Z,1.60
2018-12-07T12:12:30.382Z,1.60
2018-12-07T12:13:30.378Z,1.50
2018-12-07T12:14:30.343Z,1.70
2018-12-07T12:15:30.380Z,1.70
2018-12-07T12:16:30.319Z,1.60
2018-12-07T12:17:30.307Z,1.60
2018-12-07T12:18:30.324Z,1.60
2018-12-07T12:19:30.296Z,1.60
2018-12-07T12:20:30.286Z,1.70
2018-12-07T12:21:30.291Z,1.60
2018-12-07T12:22:30.256Z,1.40
2018-12-07T12:23:30.244Z,1.40
2018-12-07T12:24:30.254Z,1.60
2018-12-07T12:25:30.237Z,1.40
2018-12-07T12:26:30.217Z,1.50
2018-12-07T12:27:30.212Z,1.30
2018-12-07T12:28:30.198Z,1.30
2018-12-07T12:29:30.220Z,1.40
2018-12-07T12:30:30.184Z,1.30
2018-12-07T12:31:30.161Z,1.50
2018-12-07T12:32:30.145Z,1.50
2018-12-07T12:33:30.135Z,1.70
2018-12-07T12:34:30.124Z,1.40
2018-12-07T12:35:30.131Z,1.30
2018-12-07T12:36:30.135Z,1.50
2018-12-07T12:37:30.096Z,1.50
2018-12-07T12:38:30.101Z,1.40
2018-12-07T12:39:30.068Z,1.50
2018-12-07T12:40:30.084Z,1.40
2018-12-07T12:41:30.111Z,1.30
2018-12-07T12:42:30.049Z,1.30
2018-12-07T12:43:30.025Z,1.30
2018-12-07T12:44:30.012Z,1.20
2018-12-07T12:45:30.000Z,1.40
2018-12-07T12:46:30.009Z,1.40
2018-12-07T12:47:29.977Z,1.20
2018-12-07T12:48:29.991Z,1.60
2018-12-07T12:49:29.986Z,1.30
2018-12-07T12:50:29.990Z,1.30
2018-12-07T12:51:29.970Z,1.40
2018-12-07T12:52:29.923Z,1.30
2018-12-07T12:53:37.218Z,1.40
2018-12-07T12:54:30.299Z,1.40
2018-12-07T12:55:30.112Z,1.40
2018-12-07T12:56:30.089Z,1.60
2018-12-07T12:57:30.104Z,1.40
2018-12-07T12:58:29.994Z,1.30
2018-12-07T12:59:29.935Z,1.20
2018-12-07T13:00:29.879Z,1.30
2018-12-07T13:01:29.861Z,1.40
2018-12-07T13:02:30.125Z,1.30
2018-12-07T13:03:29.849Z,1.40
2018-12-07T13:04:29.901Z,1.40
2018-12-07T13:05:29.821Z,1.30
2018-12-07T13:06:29.827Z,1.40
2018-12-07T13:07:29.858Z,1.30
2018-12-07T13:08:29.816Z,1.30
2018-12-07T13:09:29.758Z,1.30
2018-12-07T13:10:29.746Z,1.30
2018-12-07T13:11:29.763Z,1.80
2018-12-07T13:12:29.744Z,1.70
2018-12-07T13:13:29.766Z,1.50
2018-12-07T13:14:29.756Z,1.40
2018-12-07T13:15:29.734Z,1.40
2018-12-07T13:16:29.690Z,1.40
2018-12-07T13:17:29.746Z,1.50
2018-12-07T13:18:29.736Z,1.40
2018-12-07T13:19:29.677Z,1.60
2018-12-07T13:20:29.701Z,1.50